sensor_id;sensor_type;location;lat;lon;timestamp;temperature;humidity
38784;DHT22;24531;45.502;12.238;2023-04-24T00:02:04;18.10;94.90
38784;DHT22;24531;45.502;12.238;2023-04-24T00:04:32;18.10;94.80
38784;DHT22;24531;45.502;12.238;2023-04-24T00:06:57;18.10;94.80
38784;DHT22;24531;45.502;12.238;2023-04-24T00:09:25;18.10;94.80
38784;DHT22;24531;45.502;12.238;2023-04-24T00:11:52;18.10;94.80
38784;DHT22;24531;45.502;12.238;2023-04-24T00:14:17;18.10;94.80
38784;DHT22;24531;45.502;12.238;2023-04-24T00:16:43;18.00;94.70
38784;DHT22;24531;45.502;12.238;2023-04-24T00:19:09;18.00;94.80
38784;DHT22;24531;45.502;12.238;2023-04-24T00:21:34;18.00;94.70
38784;DHT22;24531;45.502;12.238;2023-04-24T00:24:00;18.00;94.70
38784;DHT22;24531;45.502;12.238;2023-04-24T00:26:26;18.00;94.70
38784;DHT22;24531;45.502;12.238;2023-04-24T00:28:51;18.00;94.70
38784;DHT22;24531;45.502;12.238;2023-04-24T00:31:17;18.10;94.80
38784;DHT22;24531;45.502;12.238;2023-04-24T00:33:43;18.10;95.00
38784;DHT22;24531;45.502;12.238;2023-04-24T00:36:08;18.10;94.50
38784;DHT22;24531;45.502;12.238;2023-04-24T00:38:34;18.10;94.50
38784;DHT22;24531;45.502;12.238;2023-04-24T00:41:00;18.00;94.50
38784;DHT22;24531;45.502;12.238;2023-04-24T00:43:26;18.00;94.50
38784;DHT22;24531;45.502;12.238;2023-04-24T00:45:51;18.00;94.50
38784;DHT22;24531;45.502;12.238;2023-04-24T00:48:17;18.00;94.50
38784;DHT22;24531;45.502;12.238;2023-04-24T00:50:43;18.00;94.90
38784;DHT22;24531;45.502;12.238;2023-04-24T00:53:09;18.00;94.50
38784;DHT22;24531;45.502;12.238;2023-04-24T00:55:35;17.90;94.50
38784;DHT22;24531;45.502;12.238;2023-04-24T00:58:02;17.90;94.50
38784;DHT22;24531;45.502;12.238;2023-04-24T01:00:29;17.90;94.60
38784;DHT22;24531;45.502;12.238;2023-04-24T01:02:58;17.90;94.60
38784;DHT22;24531;45.502;12.238;2023-04-24T01:05:24;17.90;94.70
38784;DHT22;24531;45.502;12.238;2023-04-24T01:07:50;17.90;94.60
38784;DHT22;24531;45.502;12.238;2023-04-24T01:10:16;17.90;94.60
38784;DHT22;24531;45.502;12.238;2023-04-24T01:12:43;17.80;94.50
38784;DHT22;24531;45.502;12.238;2023-04-24T01:15:09;17.80;94.50
38784;DHT22;24531;45.502;12.238;2023-04-24T01:17:35;17.80;94.60
38784;DHT22;24531;45.502;12.238;2023-04-24T01:20:01;17.80;94.60
38784;DHT22;24531;45.502;12.238;2023-04-24T01:22:29;17.80;94.60
38784;DHT22;24531;45.502;12.238;2023-04-24T01:24:55;17.80;94.60
38784;DHT22;24531;45.502;12.238;2023-04-24T01:27:20;17.80;94.60
38784;DHT22;24531;45.502;12.238;2023-04-24T01:29:46;17.80;94.60
38784;DHT22;24531;45.502;12.238;2023-04-24T01:32:15;17.80;94.60
38784;DHT22;24531;45.502;12.238;2023-04-24T01:34:42;17.80;94.60
38784;DHT22;24531;45.502;12.238;2023-04-24T01:37:08;17.80;94.60
38784;DHT22;24531;45.502;12.238;2023-04-24T01:39:33;17.80;94.70
38784;DHT22;24531;45.502;12.238;2023-04-24T01:42:00;17.80;94.70
38784;DHT22;24531;45.502;12.238;2023-04-24T01:44:27;17.80;94.70
38784;DHT22;24531;45.502;12.238;2023-04-24T01:46:54;17.80;94.70
38784;DHT22;24531;45.502;12.238;2023-04-24T01:49:20;17.80;94.70
38784;DHT22;24531;45.502;12.238;2023-04-24T01:51:46;17.80;94.70
38784;DHT22;24531;45.502;12.238;2023-04-24T01:54:12;17.80;94.70
38784;DHT22;24531;45.502;12.238;2023-04-24T01:56:41;17.80;94.70
38784;DHT22;24531;45.502;12.238;2023-04-24T01:59:09;17.80;95.10
38784;DHT22;24531;45.502;12.238;2023-04-24T02:01:37;17.80;95.10
38784;DHT22;24531;45.502;12.238;2023-04-24T02:04:04;17.90;94.70
38784;DHT22;24531;45.502;12.238;2023-04-24T02:06:30;17.90;94.70
38784;DHT22;24531;45.502;12.238;2023-04-24T02:08:59;17.90;94.70
38784;DHT22;24531;45.502;12.238;2023-04-24T02:11:25;17.80;94.70
38784;DHT22;24531;45.502;12.238;2023-04-24T02:13:52;17.80;94.70
38784;DHT22;24531;45.502;12.238;2023-04-24T02:16:18;17.80;94.80
38784;DHT22;24531;45.502;12.238;2023-04-24T02:18:44;17.80;94.80
38784;DHT22;24531;45.502;12.238;2023-04-24T02:21:10;17.80;94.70
38784;DHT22;24531;45.502;12.238;2023-04-24T02:23:35;17.80;94.70
38784;DHT22;24531;45.502;12.238;2023-04-24T02:26:01;17.80;94.80
38784;DHT22;24531;45.502;12.238;2023-04-24T02:28:26;17.80;94.80
38784;DHT22;24531;45.502;12.238;2023-04-24T02:30:52;17.80;94.80
38784;DHT22;24531;45.502;12.238;2023-04-24T02:33:18;17.80;94.80
38784;DHT22;24531;45.502;12.238;2023-04-24T02:35:43;17.70;94.70
38784;DHT22;24531;45.502;12.238;2023-04-24T02:38:09;17.70;94.80
38784;DHT22;24531;45.502;12.238;2023-04-24T02:40:35;17.70;94.80
38784;DHT22;24531;45.502;12.238;2023-04-24T02:43:00;17.70;94.80
38784;DHT22;24531;45.502;12.238;2023-04-24T02:45:26;17.70;94.80
38784;DHT22;24531;45.502;12.238;2023-04-24T02:47:51;17.80;94.80
38784;DHT22;24531;45.502;12.238;2023-04-24T02:50:17;17.80;94.80
38784;DHT22;24531;45.502;12.238;2023-04-24T02:52:43;18.00;94.80
38784;DHT22;24531;45.502;12.238;2023-04-24T02:55:08;17.80;94.70
38784;DHT22;24531;45.502;12.238;2023-04-24T02:57:34;17.80;94.70
38784;DHT22;24531;45.502;12.238;2023-04-24T03:00:00;17.80;94.70
38784;DHT22;24531;45.502;12.238;2023-04-24T03:02:25;17.80;94.70
38784;DHT22;24531;45.502;12.238;2023-04-24T03:04:51;17.70;94.70
38784;DHT22;24531;45.502;12.238;2023-04-24T03:07:17;17.80;94.70
38784;DHT22;24531;45.502;12.238;2023-04-24T03:09:46;17.80;94.70
38784;DHT22;24531;45.502;12.238;2023-04-24T03:12:12;17.80;94.80
38784;DHT22;24531;45.502;12.238;2023-04-24T03:14:37;17.70;94.80
38784;DHT22;24531;45.502;12.238;2023-04-24T03:17:03;17.70;94.70
38784;DHT22;24531;45.502;12.238;2023-04-24T03:19:28;17.70;94.80
38784;DHT22;24531;45.502;12.238;2023-04-24T03:21:54;17.60;94.80
38784;DHT22;24531;45.502;12.238;2023-04-24T03:24:20;17.70;94.90
38784;DHT22;24531;45.502;12.238;2023-04-24T03:26:46;17.60;94.80
38784;DHT22;24531;45.502;12.238;2023-04-24T03:29:11;17.70;94.90
38784;DHT22;24531;45.502;12.238;2023-04-24T03:31:37;17.70;94.90
38784;DHT22;24531;45.502;12.238;2023-04-24T03:34:02;17.70;94.80
38784;DHT22;24531;45.502;12.238;2023-04-24T03:36:28;17.70;94.90
38784;DHT22;24531;45.502;12.238;2023-04-24T03:38:53;17.70;94.90
38784;DHT22;24531;45.502;12.238;2023-04-24T03:41:19;17.70;95.20
38784;DHT22;24531;45.502;12.238;2023-04-24T03:43:45;17.60;95.00
38784;DHT22;24531;45.502;12.238;2023-04-24T03:46:10;17.60;95.00
38784;DHT22;24531;45.502;12.238;2023-04-24T03:48:36;17.70;95.10
38784;DHT22;24531;45.502;12.238;2023-04-24T03:51:01;17.70;95.00
38784;DHT22;24531;45.502;12.238;2023-04-24T03:53:27;17.80;95.10
38784;DHT22;24531;45.502;12.238;2023-04-24T03:55:53;17.80;95.00
38784;DHT22;24531;45.502;12.238;2023-04-24T03:58:19;17.90;95.00
38784;DHT22;24531;45.502;12.238;2023-04-24T04:00:44;17.90;94.90
38784;DHT22;24531;45.502;12.238;2023-04-24T04:03:13;18.00;94.90
38784;DHT22;24531;45.502;12.238;2023-04-24T04:05:39;18.00;94.80
38784;DHT22;24531;45.502;12.238;2023-04-24T04:08:05;18.10;94.80
38784;DHT22;24531;45.502;12.238;2023-04-24T04:10:31;18.10;94.80
38784;DHT22;24531;45.502;12.238;2023-04-24T04:12:56;18.10;94.70
38784;DHT22;24531;45.502;12.238;2023-04-24T04:15:22;18.00;94.70
38784;DHT22;24531;45.502;12.238;2023-04-24T04:17:48;18.00;94.70
38784;DHT22;24531;45.502;12.238;2023-04-24T04:20:13;18.00;94.50
38784;DHT22;24531;45.502;12.238;2023-04-24T04:22:39;17.90;94.60
38784;DHT22;24531;45.502;12.238;2023-04-24T04:25:05;17.90;94.90
38784;DHT22;24531;45.502;12.238;2023-04-24T04:27:31;17.90;94.90
38784;DHT22;24531;45.502;12.238;2023-04-24T04:29:58;17.90;94.90
38784;DHT22;24531;45.502;12.238;2023-04-24T04:32:26;17.90;94.90
38784;DHT22;24531;45.502;12.238;2023-04-24T04:34:52;17.90;94.90
38784;DHT22;24531;45.502;12.238;2023-04-24T04:37:18;17.90;94.90
38784;DHT22;24531;45.502;12.238;2023-04-24T04:39:44;17.80;94.80
38784;DHT22;24531;45.502;12.238;2023-04-24T04:42:10;17.70;94.90
38784;DHT22;24531;45.502;12.238;2023-04-24T04:44:35;17.50;95.10
38784;DHT22;24531;45.502;12.238;2023-04-24T04:47:02;17.50;95.90
38784;DHT22;24531;45.502;12.238;2023-04-24T04:49:31;17.50;95.70
38784;DHT22;24531;45.502;12.238;2023-04-24T04:51:57;17.60;95.80
38784;DHT22;24531;45.502;12.238;2023-04-24T04:54:22;17.60;95.90
38784;DHT22;24531;45.502;12.238;2023-04-24T04:56:50;17.60;96.40
38784;DHT22;24531;45.502;12.238;2023-04-24T04:59:16;17.60;96.10
38784;DHT22;24531;45.502;12.238;2023-04-24T05:01:41;17.70;96.10
38784;DHT22;24531;45.502;12.238;2023-04-24T05:04:07;17.80;96.10
38784;DHT22;24531;45.502;12.238;2023-04-24T05:06:33;17.70;96.10
38784;DHT22;24531;45.502;12.238;2023-04-24T05:08:58;17.70;96.10
38784;DHT22;24531;45.502;12.238;2023-04-24T05:11:24;17.70;96.20
38784;DHT22;24531;45.502;12.238;2023-04-24T05:13:50;17.70;96.30
38784;DHT22;24531;45.502;12.238;2023-04-24T05:16:16;17.70;96.40
38784;DHT22;24531;45.502;12.238;2023-04-24T05:18:41;17.60;96.50
38784;DHT22;24531;45.502;12.238;2023-04-24T05:21:07;17.60;96.70
38784;DHT22;24531;45.502;12.238;2023-04-24T05:23:32;17.60;96.70
38784;DHT22;24531;45.502;12.238;2023-04-24T05:25:58;17.70;96.70
38784;DHT22;24531;45.502;12.238;2023-04-24T05:28:24;17.70;96.80
38784;DHT22;24531;45.502;12.238;2023-04-24T05:30:56;17.70;96.80
38784;DHT22;24531;45.502;12.238;2023-04-24T05:33:22;17.80;96.90
38784;DHT22;24531;45.502;12.238;2023-04-24T05:35:48;17.70;96.90
38784;DHT22;24531;45.502;12.238;2023-04-24T05:38:14;17.80;96.90
38784;DHT22;24531;45.502;12.238;2023-04-24T05:40:42;17.70;96.80
38784;DHT22;24531;45.502;12.238;2023-04-24T05:43:08;17.80;96.80
38784;DHT22;24531;45.502;12.238;2023-04-24T05:45:34;17.80;96.90
38784;DHT22;24531;45.502;12.238;2023-04-24T05:48:02;17.80;96.90
38784;DHT22;24531;45.502;12.238;2023-04-24T05:50:27;17.80;97.00
38784;DHT22;24531;45.502;12.238;2023-04-24T05:52:53;17.80;97.00
38784;DHT22;24531;45.502;12.238;2023-04-24T05:55:19;17.80;97.00
38784;DHT22;24531;45.502;12.238;2023-04-24T05:57:45;17.80;97.00
38784;DHT22;24531;45.502;12.238;2023-04-24T06:00:11;17.80;97.00
38784;DHT22;24531;45.502;12.238;2023-04-24T06:02:38;17.80;97.10
38784;DHT22;24531;45.502;12.238;2023-04-24T06:05:04;17.80;97.10
38784;DHT22;24531;45.502;12.238;2023-04-24T06:07:30;17.90;97.30
38784;DHT22;24531;45.502;12.238;2023-04-24T06:09:56;17.90;97.30
38784;DHT22;24531;45.502;12.238;2023-04-24T06:12:22;17.90;97.30
38784;DHT22;24531;45.502;12.238;2023-04-24T06:14:48;17.90;97.20
38784;DHT22;24531;45.502;12.238;2023-04-24T06:17:14;17.80;97.40
38784;DHT22;24531;45.502;12.238;2023-04-24T06:19:40;17.80;97.50
38784;DHT22;24531;45.502;12.238;2023-04-24T06:22:06;17.90;97.50
38784;DHT22;24531;45.502;12.238;2023-04-24T06:24:33;17.90;97.50
38784;DHT22;24531;45.502;12.238;2023-04-24T06:26:59;17.90;97.70
38784;DHT22;24531;45.502;12.238;2023-04-24T06:29:26;17.90;97.40
38784;DHT22;24531;45.502;12.238;2023-04-24T06:31:52;18.00;97.40
38784;DHT22;24531;45.502;12.238;2023-04-24T06:34:18;18.00;97.40
38784;DHT22;24531;45.502;12.238;2023-04-24T06:36:44;18.00;97.50
38784;DHT22;24531;45.502;12.238;2023-04-24T06:39:10;18.00;97.50
38784;DHT22;24531;45.502;12.238;2023-04-24T06:41:35;18.00;97.60
38784;DHT22;24531;45.502;12.238;2023-04-24T06:44:01;18.00;97.60
38784;DHT22;24531;45.502;12.238;2023-04-24T06:46:27;18.00;97.80
38784;DHT22;24531;45.502;12.238;2023-04-24T06:48:53;18.10;97.90
38784;DHT22;24531;45.502;12.238;2023-04-24T06:51:26;18.20;97.90
38784;DHT22;24531;45.502;12.238;2023-04-24T06:53:53;18.30;97.80
38784;DHT22;24531;45.502;12.238;2023-04-24T06:56:19;18.20;97.80
38784;DHT22;24531;45.502;12.238;2023-04-24T06:58:45;18.20;98.00
38784;DHT22;24531;45.502;12.238;2023-04-24T07:01:11;18.30;98.00
38784;DHT22;24531;45.502;12.238;2023-04-24T07:03:37;18.30;97.80
38784;DHT22;24531;45.502;12.238;2023-04-24T07:06:03;18.20;97.70
38784;DHT22;24531;45.502;12.238;2023-04-24T07:08:29;18.20;98.10
38784;DHT22;24531;45.502;12.238;2023-04-24T07:10:59;18.20;97.60
38784;DHT22;24531;45.502;12.238;2023-04-24T07:13:24;18.10;97.30
38784;DHT22;24531;45.502;12.238;2023-04-24T07:15:50;17.90;97.50
38784;DHT22;24531;45.502;12.238;2023-04-24T07:18:18;17.80;97.70
38784;DHT22;24531;45.502;12.238;2023-04-24T07:20:43;17.90;97.80
38784;DHT22;24531;45.502;12.238;2023-04-24T07:23:10;17.90;97.60
38784;DHT22;24531;45.502;12.238;2023-04-24T07:25:35;17.90;97.50
38784;DHT22;24531;45.502;12.238;2023-04-24T07:28:01;18.00;97.60
38784;DHT22;24531;45.502;12.238;2023-04-24T07:30:27;18.00;97.40
38784;DHT22;24531;45.502;12.238;2023-04-24T07:32:54;18.10;97.30
38784;DHT22;24531;45.502;12.238;2023-04-24T07:35:21;18.00;97.40
38784;DHT22;24531;45.502;12.238;2023-04-24T07:37:47;18.10;97.40
38784;DHT22;24531;45.502;12.238;2023-04-24T07:40:13;18.00;97.40
38784;DHT22;24531;45.502;12.238;2023-04-24T07:42:39;18.10;97.40
38784;DHT22;24531;45.502;12.238;2023-04-24T07:45:05;18.10;97.40
38784;DHT22;24531;45.502;12.238;2023-04-24T07:47:32;18.10;97.40
38784;DHT22;24531;45.502;12.238;2023-04-24T07:49:59;18.10;97.40
38784;DHT22;24531;45.502;12.238;2023-04-24T07:52:24;18.00;97.40
38784;DHT22;24531;45.502;12.238;2023-04-24T07:54:50;18.00;97.50
38784;DHT22;24531;45.502;12.238;2023-04-24T07:57:18;18.00;97.50
38784;DHT22;24531;45.502;12.238;2023-04-24T07:59:43;18.00;97.50
38784;DHT22;24531;45.502;12.238;2023-04-24T08:02:09;18.00;97.50
38784;DHT22;24531;45.502;12.238;2023-04-24T08:04:35;18.10;97.40
38784;DHT22;24531;45.502;12.238;2023-04-24T08:07:00;18.00;97.40
38784;DHT22;24531;45.502;12.238;2023-04-24T08:09:26;18.00;97.30
38784;DHT22;24531;45.502;12.238;2023-04-24T08:11:51;18.00;97.40
38784;DHT22;24531;45.502;12.238;2023-04-24T08:14:18;17.90;97.40
38784;DHT22;24531;45.502;12.238;2023-04-24T08:16:44;17.80;97.40
38784;DHT22;24531;45.502;12.238;2023-04-24T08:19:13;17.80;97.40
38784;DHT22;24531;45.502;12.238;2023-04-24T08:21:38;17.90;97.50
38784;DHT22;24531;45.502;12.238;2023-04-24T08:24:04;18.00;97.60
38784;DHT22;24531;45.502;12.238;2023-04-24T08:26:33;18.20;97.50
38784;DHT22;24531;45.502;12.238;2023-04-24T08:28:58;18.30;97.40
38784;DHT22;24531;45.502;12.238;2023-04-24T08:31:24;18.40;97.30
38784;DHT22;24531;45.502;12.238;2023-04-24T08:33:51;18.40;97.20
38784;DHT22;24531;45.502;12.238;2023-04-24T08:36:16;18.50;97.30
38784;DHT22;24531;45.502;12.238;2023-04-24T08:38:42;18.50;97.20
38784;DHT22;24531;45.502;12.238;2023-04-24T08:41:09;18.50;97.20
38784;DHT22;24531;45.502;12.238;2023-04-24T08:43:35;18.40;97.20
38784;DHT22;24531;45.502;12.238;2023-04-24T08:46:03;18.30;97.30
38784;DHT22;24531;45.502;12.238;2023-04-24T08:48:30;18.20;97.70
38784;DHT22;24531;45.502;12.238;2023-04-24T08:50:57;18.10;97.40
38784;DHT22;24531;45.502;12.238;2023-04-24T08:53:24;18.00;97.50
38784;DHT22;24531;45.502;12.238;2023-04-24T08:55:50;18.00;97.60
38784;DHT22;24531;45.502;12.238;2023-04-24T08:58:17;17.90;97.60
38784;DHT22;24531;45.502;12.238;2023-04-24T09:00:43;17.90;97.80
38784;DHT22;24531;45.502;12.238;2023-04-24T09:03:16;17.90;97.70
38784;DHT22;24531;45.502;12.238;2023-04-24T09:05:43;17.80;97.70
38784;DHT22;24531;45.502;12.238;2023-04-24T09:08:13;17.80;98.00
38784;DHT22;24531;45.502;12.238;2023-04-24T09:10:39;17.80;98.10
38784;DHT22;24531;45.502;12.238;2023-04-24T09:13:05;17.90;98.20
38784;DHT22;24531;45.502;12.238;2023-04-24T09:15:34;18.00;98.30
38784;DHT22;24531;45.502;12.238;2023-04-24T09:18:01;18.10;98.30
38784;DHT22;24531;45.502;12.238;2023-04-24T09:20:26;18.20;98.30
38784;DHT22;24531;45.502;12.238;2023-04-24T09:22:57;18.30;98.30
38784;DHT22;24531;45.502;12.238;2023-04-24T09:25:24;18.40;98.30
38784;DHT22;24531;45.502;12.238;2023-04-24T09:27:53;18.50;98.30
38784;DHT22;24531;45.502;12.238;2023-04-24T09:30:22;18.90;98.70
38784;DHT22;24531;45.502;12.238;2023-04-24T09:32:48;19.60;98.50
38784;DHT22;24531;45.502;12.238;2023-04-24T09:35:15;20.10;98.20
38784;DHT22;24531;45.502;12.238;2023-04-24T09:37:41;20.50;97.70
38784;DHT22;24531;45.502;12.238;2023-04-24T09:42:44;21.20;97.40
38784;DHT22;24531;45.502;12.238;2023-04-24T09:45:11;21.60;97.30
38784;DHT22;24531;45.502;12.238;2023-04-24T09:47:40;22.40;97.00
38784;DHT22;24531;45.502;12.238;2023-04-24T09:50:13;23.00;96.10
38784;DHT22;24531;45.502;12.238;2023-04-24T09:53:02;23.60;95.70
38784;DHT22;24531;45.502;12.238;2023-04-24T09:55:28;24.10;94.50
38784;DHT22;24531;45.502;12.238;2023-04-24T09:57:55;24.20;94.30
38784;DHT22;24531;45.502;12.238;2023-04-24T10:00:24;24.00;93.90
38784;DHT22;24531;45.502;12.238;2023-04-24T10:02:54;23.40;93.60
38784;DHT22;24531;45.502;12.238;2023-04-24T10:05:23;23.00;93.80
38784;DHT22;24531;45.502;12.238;2023-04-24T10:07:49;22.60;93.80
38784;DHT22;24531;45.502;12.238;2023-04-24T10:10:15;22.30;94.00
38784;DHT22;24531;45.502;12.238;2023-04-24T10:12:41;22.00;94.00
38784;DHT22;24531;45.502;12.238;2023-04-24T10:15:10;21.80;94.00
38784;DHT22;24531;45.502;12.238;2023-04-24T10:17:38;21.50;94.00
38784;DHT22;24531;45.502;12.238;2023-04-24T10:20:05;21.20;94.00
38784;DHT22;24531;45.502;12.238;2023-04-24T10:22:32;21.00;94.00
38784;DHT22;24531;45.502;12.238;2023-04-24T10:24:59;20.80;94.00
38784;DHT22;24531;45.502;12.238;2023-04-24T10:27:26;20.60;94.20
38784;DHT22;24531;45.502;12.238;2023-04-24T10:29:53;20.40;94.20
38784;DHT22;24531;45.502;12.238;2023-04-24T10:32:19;20.30;94.20
38784;DHT22;24531;45.502;12.238;2023-04-24T10:34:44;20.30;94.40
38784;DHT22;24531;45.502;12.238;2023-04-24T10:37:10;20.10;94.40
38784;DHT22;24531;45.502;12.238;2023-04-24T10:39:36;20.00;94.40
38784;DHT22;24531;45.502;12.238;2023-04-24T10:42:16;19.90;94.40
38784;DHT22;24531;45.502;12.238;2023-04-24T10:44:42;19.80;94.60
38784;DHT22;24531;45.502;12.238;2023-04-24T10:47:13;19.70;94.50
38784;DHT22;24531;45.502;12.238;2023-04-24T10:49:39;19.60;94.40
38784;DHT22;24531;45.502;12.238;2023-04-24T10:52:05;19.50;94.50
38784;DHT22;24531;45.502;12.238;2023-04-24T10:54:41;19.40;94.70
38784;DHT22;24531;45.502;12.238;2023-04-24T11:00:18;19.40;94.80
38784;DHT22;24531;45.502;12.238;2023-04-24T11:02:47;19.40;94.70
38784;DHT22;24531;45.502;12.238;2023-04-24T11:05:18;19.40;94.60
38784;DHT22;24531;45.502;12.238;2023-04-24T11:08:16;19.50;94.60
38784;DHT22;24531;45.502;12.238;2023-04-24T11:10:54;19.50;94.50
38784;DHT22;24531;45.502;12.238;2023-04-24T11:13:25;19.60;94.30
38784;DHT22;24531;45.502;12.238;2023-04-24T11:16:14;19.60;94.30
38784;DHT22;24531;45.502;12.238;2023-04-24T11:18:42;19.60;94.10
38784;DHT22;24531;45.502;12.238;2023-04-24T11:21:17;19.70;94.00
38784;DHT22;24531;45.502;12.238;2023-04-24T11:23:43;19.80;94.00
38784;DHT22;24531;45.502;12.238;2023-04-24T11:26:11;19.90;93.80
38784;DHT22;24531;45.502;12.238;2023-04-24T11:28:37;19.90;93.60
38784;DHT22;24531;45.502;12.238;2023-04-24T11:31:37;20.00;93.50
38784;DHT22;24531;45.502;12.238;2023-04-24T11:34:11;19.90;92.90
38784;DHT22;24531;45.502;12.238;2023-04-24T11:36:37;19.90;92.90
38784;DHT22;24531;45.502;12.238;2023-04-24T11:39:03;20.00;92.80
38784;DHT22;24531;45.502;12.238;2023-04-24T11:41:29;20.00;92.60
38784;DHT22;24531;45.502;12.238;2023-04-24T11:43:56;20.10;92.60
38784;DHT22;24531;45.502;12.238;2023-04-24T11:46:22;20.40;92.50
38784;DHT22;24531;45.502;12.238;2023-04-24T11:48:48;20.50;92.00
38784;DHT22;24531;45.502;12.238;2023-04-24T11:51:14;20.70;91.90
38784;DHT22;24531;45.502;12.238;2023-04-24T11:53:40;20.80;91.70
38784;DHT22;24531;45.502;12.238;2023-04-24T11:56:05;20.80;91.50
38784;DHT22;24531;45.502;12.238;2023-04-24T11:58:38;20.70;91.40
38784;DHT22;24531;45.502;12.238;2023-04-24T12:01:04;20.80;91.50
38784;DHT22;24531;45.502;12.238;2023-04-24T12:03:34;21.00;91.40
38784;DHT22;24531;45.502;12.238;2023-04-24T12:06:06;21.10;91.00
38784;DHT22;24531;45.502;12.238;2023-04-24T12:08:35;21.00;90.80
38784;DHT22;24531;45.502;12.238;2023-04-24T12:11:02;21.00;90.80
38784;DHT22;24531;45.502;12.238;2023-04-24T12:13:31;21.10;90.60
38784;DHT22;24531;45.502;12.238;2023-04-24T12:15:57;21.00;90.60
38784;DHT22;24531;45.502;12.238;2023-04-24T12:18:23;21.00;90.60
38784;DHT22;24531;45.502;12.238;2023-04-24T12:20:49;21.00;90.30
38784;DHT22;24531;45.502;12.238;2023-04-24T12:23:34;21.00;90.30
38784;DHT22;24531;45.502;12.238;2023-04-24T12:26:04;21.00;90.30
38784;DHT22;24531;45.502;12.238;2023-04-24T12:28:37;21.00;90.10
38784;DHT22;24531;45.502;12.238;2023-04-24T12:31:03;21.00;90.10
38784;DHT22;24531;45.502;12.238;2023-04-24T12:33:33;20.90;90.00
38784;DHT22;24531;45.502;12.238;2023-04-24T12:36:00;20.90;90.00
38784;DHT22;24531;45.502;12.238;2023-04-24T12:38:27;20.80;90.10
38784;DHT22;24531;45.502;12.238;2023-04-24T12:41:21;20.90;90.00
38784;DHT22;24531;45.502;12.238;2023-04-24T12:43:56;20.80;90.00
38784;DHT22;24531;45.502;12.238;2023-04-24T12:46:22;20.70;90.00
38784;DHT22;24531;45.502;12.238;2023-04-24T12:48:47;20.70;89.60
38784;DHT22;24531;45.502;12.238;2023-04-24T12:51:16;20.70;89.30
38784;DHT22;24531;45.502;12.238;2023-04-24T12:53:42;20.60;89.00
38784;DHT22;24531;45.502;12.238;2023-04-24T12:56:07;20.60;88.90
38784;DHT22;24531;45.502;12.238;2023-04-24T12:58:33;20.50;89.00
38784;DHT22;24531;45.502;12.238;2023-04-24T13:00:58;20.40;88.60
38784;DHT22;24531;45.502;12.238;2023-04-24T13:03:26;20.30;88.60
38784;DHT22;24531;45.502;12.238;2023-04-24T13:05:51;20.30;88.50
38784;DHT22;24531;45.502;12.238;2023-04-24T13:08:17;20.10;87.90
38784;DHT22;24531;45.502;12.238;2023-04-24T13:10:46;20.00;88.00
38784;DHT22;24531;45.502;12.238;2023-04-24T13:13:14;19.90;88.40
38784;DHT22;24531;45.502;12.238;2023-04-24T13:15:39;19.90;88.60
38784;DHT22;24531;45.502;12.238;2023-04-24T13:18:08;19.90;88.60
38784;DHT22;24531;45.502;12.238;2023-04-24T13:20:34;19.80;88.30
38784;DHT22;24531;45.502;12.238;2023-04-24T13:23:00;19.80;88.30
38784;DHT22;24531;45.502;12.238;2023-04-24T13:25:26;19.90;88.30
38784;DHT22;24531;45.502;12.238;2023-04-24T13:27:52;19.90;88.50
38784;DHT22;24531;45.502;12.238;2023-04-24T13:30:18;20.00;88.40
38784;DHT22;24531;45.502;12.238;2023-04-24T13:32:43;20.10;88.30
38784;DHT22;24531;45.502;12.238;2023-04-24T13:35:09;20.10;88.20
38784;DHT22;24531;45.502;12.238;2023-04-24T13:37:35;20.20;88.10
38784;DHT22;24531;45.502;12.238;2023-04-24T13:40:00;20.20;87.80
38784;DHT22;24531;45.502;12.238;2023-04-24T13:42:26;20.30;87.70
38784;DHT22;24531;45.502;12.238;2023-04-24T13:44:52;20.30;87.60
38784;DHT22;24531;45.502;12.238;2023-04-24T13:47:17;20.40;87.50
38784;DHT22;24531;45.502;12.238;2023-04-24T13:49:43;20.50;87.40
38784;DHT22;24531;45.502;12.238;2023-04-24T13:52:09;20.70;87.30
38784;DHT22;24531;45.502;12.238;2023-04-24T13:54:35;20.80;86.90
38784;DHT22;24531;45.502;12.238;2023-04-24T13:57:04;20.90;86.30
38784;DHT22;24531;45.502;12.238;2023-04-24T13:59:29;21.00;86.90
38784;DHT22;24531;45.502;12.238;2023-04-24T14:01:55;21.20;86.60
38784;DHT22;24531;45.502;12.238;2023-04-24T14:04:21;21.20;85.20
38784;DHT22;24531;45.502;12.238;2023-04-24T14:06:49;21.20;85.30
38784;DHT22;24531;45.502;12.238;2023-04-24T14:09:15;21.20;85.20
38784;DHT22;24531;45.502;12.238;2023-04-24T14:11:41;21.20;85.00
38784;DHT22;24531;45.502;12.238;2023-04-24T14:14:07;21.20;84.50
38784;DHT22;24531;45.502;12.238;2023-04-24T14:16:33;21.20;85.30
38784;DHT22;24531;45.502;12.238;2023-04-24T14:19:00;21.20;84.30
38784;DHT22;24531;45.502;12.238;2023-04-24T14:21:25;21.30;83.80
38784;DHT22;24531;45.502;12.238;2023-04-24T14:23:51;21.30;83.50
38784;DHT22;24531;45.502;12.238;2023-04-24T14:26:17;21.30;83.40
38784;DHT22;24531;45.502;12.238;2023-04-24T14:28:42;21.40;83.90
38784;DHT22;24531;45.502;12.238;2023-04-24T14:31:08;21.60;83.00
38784;DHT22;24531;45.502;12.238;2023-04-24T14:33:34;21.80;83.00
38784;DHT22;24531;45.502;12.238;2023-04-24T14:36:00;22.00;82.70
38784;DHT22;24531;45.502;12.238;2023-04-24T14:38:27;22.10;82.00
38784;DHT22;24531;45.502;12.238;2023-04-24T14:40:53;22.20;81.30
38784;DHT22;24531;45.502;12.238;2023-04-24T14:43:19;22.20;81.20
38784;DHT22;24531;45.502;12.238;2023-04-24T14:45:45;22.10;80.80
38784;DHT22;24531;45.502;12.238;2023-04-24T14:48:10;22.20;80.70
38784;DHT22;24531;45.502;12.238;2023-04-24T14:50:36;22.20;80.60
38784;DHT22;24531;45.502;12.238;2023-04-24T14:53:02;22.30;80.60
38784;DHT22;24531;45.502;12.238;2023-04-24T14:55:28;22.30;81.00
38784;DHT22;24531;45.502;12.238;2023-04-24T14:57:54;22.40;80.70
38784;DHT22;24531;45.502;12.238;2023-04-24T15:00:20;22.30;80.60
38784;DHT22;24531;45.502;12.238;2023-04-24T15:02:48;22.30;80.60
38784;DHT22;24531;45.502;12.238;2023-04-24T15:05:14;22.20;80.70
38784;DHT22;24531;45.502;12.238;2023-04-24T15:07:39;22.30;81.10
38784;DHT22;24531;45.502;12.238;2023-04-24T15:10:07;22.40;81.30
38784;DHT22;24531;45.502;12.238;2023-04-24T15:12:33;22.50;81.20
38784;DHT22;24531;45.502;12.238;2023-04-24T15:14:58;22.40;80.60
38784;DHT22;24531;45.502;12.238;2023-04-24T15:17:25;22.40;80.80
38784;DHT22;24531;45.502;12.238;2023-04-24T15:19:51;22.40;80.80